sensor_id;sensor_type;location;lat;lon;timestamp;pressure;altitude;pressure_sealevel;temperature;humidity
30682;BME280;17439;48.092;11.842;2023-05-08T00:01:23;95629.28;;;17.31;60.05
30682;BME280;17439;48.092;11.842;2023-05-08T00:03:50;95636.25;;;17.29;60.18
30682;BME280;17439;48.092;11.842;2023-05-08T00:06:18;95631.81;;;17.24;60.41
30682;BME280;17439;48.092;11.842;2023-05-08T00:08:44;95637.97;;;17.21;60.20
30682;BME280;17439;48.092;11.842;2023-05-08T00:11:11;95636.75;;;17.18;60.36
30682;BME280;17439;48.092;11.842;2023-05-08T00:13:38;95640.97;;;17.16;60.56
30682;BME280;17439;48.092;11.842;2023-05-08T00:16:05;95640.53;;;17.14;60.42
30682;BME280;17439;48.092;11.842;2023-05-08T00:18:31;95641.66;;;17.13;60.54
30682;BME280;17439;48.092;11.842;2023-05-08T00:20:58;95643.19;;;17.10;60.43
30682;BME280;17439;48.092;11.842;2023-05-08T00:23:24;95644.66;;;17.08;60.66
30682;BME280;17439;48.092;11.842;2023-05-08T00:25:51;95645.00;;;17.06;60.54
30682;BME280;17439;48.092;11.842;2023-05-08T00:28:18;95643.75;;;17.03;60.62
30682;BME280;17439;48.092;11.842;2023-05-08T00:30:45;95651.09;;;16.99;60.90
30682;BME280;17439;48.092;11.842;2023-05-08T00:33:11;95647.91;;;16.97;60.80
30682;BME280;17439;48.092;11.842;2023-05-08T00:35:38;95648.25;;;16.96;60.77
30682;BME280;17439;48.092;11.842;2023-05-08T00:38:05;95641.50;;;16.93;61.08
30682;BME280;17439;48.092;11.842;2023-05-08T00:40:31;95644.59;;;16.92;60.96
30682;BME280;17439;48.092;11.842;2023-05-08T00:42:58;95647.69;;;16.90;60.96
30682;BME280;17439;48.092;11.842;2023-05-08T00:45:31;95645.63;;;16.87;60.57
30682;BME280;17439;48.092;11.842;2023-05-08T00:47:58;95649.50;;;16.86;60.98
30682;BME280;17439;48.092;11.842;2023-05-08T00:50:25;95645.16;;;16.85;60.98
30682;BME280;17439;48.092;11.842;2023-05-08T00:52:52;95646.78;;;16.86;60.78
30682;BME280;17439;48.092;11.842;2023-05-08T00:55:19;95639.59;;;16.81;61.22
30682;BME280;17439;48.092;11.842;2023-05-08T00:57:46;95641.50;;;16.81;61.12
30682;BME280;17439;48.092;11.842;2023-05-08T01:00:16;95645.41;;;16.80;60.82
30682;BME280;17439;48.092;11.842;2023-05-08T01:02:44;95645.41;;;16.80;61.36
30682;BME280;17439;48.092;11.842;2023-05-08T01:05:11;95646.66;;;16.70;60.70
30682;BME280;17439;48.092;11.842;2023-05-08T01:07:38;95646.09;;;16.77;61.29
30682;BME280;17439;48.092;11.842;2023-05-08T01:10:05;95647.34;;;16.79;61.08
30682;BME280;17439;48.092;11.842;2023-05-08T01:12:46;95646.88;;;16.77;60.01
30682;BME280;17439;48.092;11.842;2023-05-08T01:15:32;95653.50;;;16.76;60.92
30682;BME280;17439;48.092;11.842;2023-05-08T01:18:12;95651.09;;;16.75;60.04
30682;BME280;17439;48.092;11.842;2023-05-08T01:23:27;95656.81;;;16.69;59.95
30682;BME280;17439;48.092;11.842;2023-05-08T01:34:40;95665.53;;;16.59;60.56
30682;BME280;17439;48.092;11.842;2023-05-08T01:37:11;95663.91;;;16.58;60.82
30682;BME280;17439;48.092;11.842;2023-05-08T01:39:47;95664.25;;;16.57;60.46
30682;BME280;17439;48.092;11.842;2023-05-08T01:42:23;95672.81;;;16.55;60.83
30682;BME280;17439;48.092;11.842;2023-05-08T01:45:04;95671.88;;;16.51;60.40
30682;BME280;17439;48.092;11.842;2023-05-08T01:47:36;95669.16;;;16.51;60.70
30682;BME280;17439;48.092;11.842;2023-05-08T01:50:09;95679.66;;;16.49;60.70
30682;BME280;17439;48.092;11.842;2023-05-08T01:52:44;95678.03;;;16.48;60.76
30682;BME280;17439;48.092;11.842;2023-05-08T01:55:19;95679.56;;;16.45;60.87
30682;BME280;17439;48.092;11.842;2023-05-08T01:57:48;95673.63;;;16.43;60.95
30682;BME280;17439;48.092;11.842;2023-05-08T02:00:18;95684.91;;;16.42;60.90
30682;BME280;17439;48.092;11.842;2023-05-08T02:02:47;95682.53;;;16.40;61.18
30682;BME280;17439;48.092;11.842;2023-05-08T02:05:15;95687.53;;;16.38;61.24
30682;BME280;17439;48.092;11.842;2023-05-08T02:07:46;95689.03;;;16.36;61.14
30682;BME280;17439;48.092;11.842;2023-05-08T02:10:15;95687.75;;;16.33;61.57
30682;BME280;17439;48.092;11.842;2023-05-08T02:12:44;95682.63;;;16.31;61.63
30682;BME280;17439;48.092;11.842;2023-05-08T02:15:14;95681.03;;;16.30;61.60
30682;BME280;17439;48.092;11.842;2023-05-08T02:17:42;95677.84;;;16.28;61.55
30682;BME280;17439;48.092;11.842;2023-05-08T02:20:12;95688.78;;;16.28;61.63
30682;BME280;17439;48.092;11.842;2023-05-08T02:22:44;95686.88;;;16.29;61.17
30682;BME280;17439;48.092;11.842;2023-05-08T02:25:14;95686.72;;;16.25;61.62
30682;BME280;17439;48.092;11.842;2023-05-08T02:27:43;95685.50;;;16.23;61.59
30682;BME280;17439;48.092;11.842;2023-05-08T02:30:12;95693.22;;;16.21;61.43
30682;BME280;17439;48.092;11.842;2023-05-08T02:32:42;95690.81;;;16.19;61.72
30682;BME280;17439;48.092;11.842;2023-05-08T02:35:15;95694.72;;;16.18;61.51
30682;BME280;17439;48.092;11.842;2023-05-08T02:37:44;95685.25;;;16.16;61.70
30682;BME280;17439;48.092;11.842;2023-05-08T02:40:13;95689.91;;;16.15;61.98
30682;BME280;17439;48.092;11.842;2023-05-08T02:42:40;95698.56;;;16.05;61.19
30682;BME280;17439;48.092;11.842;2023-05-08T02:45:08;95686.59;;;16.09;62.13
30682;BME280;17439;48.092;11.842;2023-05-08T02:50:16;95703.50;;;16.11;61.59
30682;BME280;17439;48.092;11.842;2023-05-08T02:52:50;95701.09;;;16.10;61.51
30682;BME280;17439;48.092;11.842;2023-05-08T02:58:13;95705.41;;;16.11;61.49
30682;BME280;17439;48.092;11.842;2023-05-08T03:00:47;95703.81;;;16.10;61.49
30682;BME280;17439;48.092;11.842;2023-05-08T03:03:25;95703.81;;;16.10;61.61
30682;BME280;17439;48.092;11.842;2023-05-08T03:05:55;95708.13;;;16.11;61.91
30682;BME280;17439;48.092;11.842;2023-05-08T03:08:28;95704.16;;;16.08;61.50
30682;BME280;17439;48.092;11.842;2023-05-08T03:10:58;95710.41;;;16.09;61.86
30682;BME280;17439;48.092;11.842;2023-05-08T03:13:28;95706.91;;;16.08;61.96
30682;BME280;17439;48.092;11.842;2023-05-08T03:15:59;95708.81;;;16.08;61.66
30682;BME280;17439;48.092;11.842;2023-05-08T03:18:35;95699.47;;;16.09;61.29
30682;BME280;17439;48.092;11.842;2023-05-08T03:21:02;95706.09;;;16.08;61.68
30682;BME280;17439;48.092;11.842;2023-05-08T03:23:32;95706.41;;;16.06;61.21
30682;BME280;17439;48.092;11.842;2023-05-08T03:26:02;95707.56;;;16.05;61.71
30682;BME280;17439;48.092;11.842;2023-05-08T03:28:29;95703.25;;;16.04;61.87
30682;BME280;17439;48.092;11.842;2023-05-08T03:30:58;95707.91;;;16.04;61.74
30682;BME280;17439;48.092;11.842;2023-05-08T03:33:27;95708.72;;;16.04;61.56
30682;BME280;17439;48.092;11.842;2023-05-08T03:35:56;95705.84;;;16.01;61.64
30682;BME280;17439;48.092;11.842;2023-05-08T03:38:23;95705.03;;;16.00;61.41
30682;BME280;17439;48.092;11.842;2023-05-08T03:40:51;95718.25;;;15.98;61.42
30682;BME280;17439;48.092;11.842;2023-05-08T03:43:19;95719.88;;;15.99;61.29
30682;BME280;17439;48.092;11.842;2023-05-08T03:45:47;95718.25;;;15.98;61.34
30682;BME280;17439;48.092;11.842;2023-05-08T03:48:15;95722.13;;;15.97;61.40
30682;BME280;17439;48.092;11.842;2023-05-08T03:50:42;95717.47;;;15.98;61.24
30682;BME280;17439;48.092;11.842;2023-05-08T03:53:09;95724.84;;;15.97;60.89
30682;BME280;17439;48.092;11.842;2023-05-08T03:55:36;95719.38;;;15.97;60.17
30682;BME280;17439;48.092;11.842;2023-05-08T04:03:21;95728.03;;;15.87;60.17
30682;BME280;17439;48.092;11.842;2023-05-08T04:08:28;95728.50;;;15.89;60.15
30682;BME280;17439;48.092;11.842;2023-05-08T04:11:07;95737.50;;;15.89;59.80
30682;BME280;17439;48.092;11.842;2023-05-08T04:13:44;95731.09;;;15.85;59.06
30682;BME280;17439;48.092;11.842;2023-05-08T04:16:25;95736.47;;;15.82;58.96
30682;BME280;17439;48.092;11.842;2023-05-08T04:18:58;95740.31;;;15.81;59.64
30682;BME280;17439;48.092;11.842;2023-05-08T04:21:28;95739.19;;;15.82;59.17
30682;BME280;17439;48.092;11.842;2023-05-08T04:23:58;95745.00;;;15.80;59.02
30682;BME280;17439;48.092;11.842;2023-05-08T04:26:25;95748.41;;;15.77;58.88
30682;BME280;17439;48.092;11.842;2023-05-08T04:28:56;95741.63;;;15.74;59.34
30682;BME280;17439;48.092;11.842;2023-05-08T04:31:23;95750.16;;;15.73;59.46
30682;BME280;17439;48.092;11.842;2023-05-08T04:33:50;95754.84;;;15.72;59.33
30682;BME280;17439;48.092;11.842;2023-05-08T04:36:17;95752.44;;;15.71;59.16
30682;BME280;17439;48.092;11.842;2023-05-08T04:38:44;95754.72;;;15.69;59.49
30682;BME280;17439;48.092;11.842;2023-05-08T04:41:11;95756.97;;;15.67;59.31
30682;BME280;17439;48.092;11.842;2023-05-08T04:43:38;95753.13;;;15.68;59.50
30682;BME280;17439;48.092;11.842;2023-05-08T04:46:06;95765.66;;;15.69;59.16
30682;BME280;17439;48.092;11.842;2023-05-08T04:48:33;95755.06;;;15.67;59.37
30682;BME280;17439;48.092;11.842;2023-05-08T04:51:00;95766.78;;;15.68;59.33
30682;BME280;17439;48.092;11.842;2023-05-08T04:53:27;95757.47;;;15.69;59.78
30682;BME280;17439;48.092;11.842;2023-05-08T04:55:53;95766.44;;;15.69;59.79
30682;BME280;17439;48.092;11.842;2023-05-08T04:58:20;95769.63;;;15.71;60.10
30682;BME280;17439;48.092;11.842;2023-05-08T05:00:47;95770.56;;;15.75;59.26
30682;BME280;17439;48.092;11.842;2023-05-08T05:03:14;95774.59;;;15.78;59.47
30682;BME280;17439;48.092;11.842;2023-05-08T05:05:41;95777.00;;;15.80;59.20
30682;BME280;17439;48.092;11.842;2023-05-08T05:08:08;95773.91;;;15.81;59.16
30682;BME280;17439;48.092;11.842;2023-05-08T05:10:37;95781.44;;;15.84;58.82
30682;BME280;17439;48.092;11.842;2023-05-08T05:13:04;95775.97;;;15.84;59.03
30682;BME280;17439;48.092;11.842;2023-05-08T05:15:31;95777.56;;;15.85;58.92
30682;BME280;17439;48.092;11.842;2023-05-08T05:17:58;95783.38;;;15.84;58.80
30682;BME280;17439;48.092;11.842;2023-05-08T05:20:25;95783.50;;;15.87;58.61
30682;BME280;17439;48.092;11.842;2023-05-08T05:22:52;95791.69;;;15.87;58.48
30682;BME280;17439;48.092;11.842;2023-05-08T05:25:18;95793.31;;;15.88;58.44
30682;BME280;17439;48.092;11.842;2023-05-08T05:27:45;95794.44;;;15.87;58.40
30682;BME280;17439;48.092;11.842;2023-05-08T05:30:12;95804.69;;;15.90;57.72
30682;BME280;17439;48.092;11.842;2023-05-08T05:32:39;95800.72;;;15.88;57.76
30682;BME280;17439;48.092;11.842;2023-05-08T05:35:08;95800.25;;;15.86;57.77
30682;BME280;17439;48.092;11.842;2023-05-08T05:37:35;95800.56;;;15.84;57.96
30682;BME280;17439;48.092;11.842;2023-05-08T05:40:02;95807.97;;;15.84;58.05
30682;BME280;17439;48.092;11.842;2023-05-08T05:42:31;95805.25;;;15.84;57.72
30682;BME280;17439;48.092;11.842;2023-05-08T05:44:58;95813.44;;;15.84;57.66
30682;BME280;17439;48.092;11.842;2023-05-08T05:47:24;95809.25;;;15.86;57.63
30682;BME280;17439;48.092;11.842;2023-05-08T05:49:51;95808.94;;;15.88;56.80
30682;BME280;17439;48.092;11.842;2023-05-08T05:52:18;95809.25;;;15.86;56.73
30682;BME280;17439;48.092;11.842;2023-05-08T05:54:45;95812.31;;;15.85;56.88
30682;BME280;17439;48.092;11.842;2023-05-08T05:57:12;95806.03;;;15.84;56.53
30682;BME280;17439;48.092;11.842;2023-05-08T05:59:39;95814.25;;;15.84;56.78
30682;BME280;17439;48.092;11.842;2023-05-08T06:02:07;95811.84;;;15.83;56.82
30682;BME280;17439;48.092;11.842;2023-05-08T06:04:34;95809.94;;;15.83;57.18
30682;BME280;17439;48.092;11.842;2023-05-08T06:07:00;95807.66;;;15.85;56.49
30682;BME280;17439;48.092;11.842;2023-05-08T06:09:27;95806.84;;;15.85;56.62
30682;BME280;17439;48.092;11.842;2023-05-08T06:11:54;95818.25;;;15.87;56.98
30682;BME280;17439;48.092;11.842;2023-05-08T06:14:21;95817.25;;;15.91;56.24
30682;BME280;17439;48.092;11.842;2023-05-08T06:16:47;95815.78;;;15.94;55.75
30682;BME280;17439;48.092;11.842;2023-05-08T06:19:14;95822.03;;;15.94;56.31
30682;BME280;17439;48.092;11.842;2023-05-08T06:21:41;95823.16;;;15.93;56.67
30682;BME280;17439;48.092;11.842;2023-05-08T06:24:08;95815.09;;;15.97;56.76
30682;BME280;17439;48.092;11.842;2023-05-08T06:26:34;95824.56;;;16.00;57.11
30682;BME280;17439;48.092;11.842;2023-05-08T06:29:01;95821.59;;;16.05;57.07
30682;BME280;17439;48.092;11.842;2023-05-08T06:31:27;95826.06;;;16.09;56.99
30682;BME280;17439;48.092;11.842;2023-05-08T06:33:54;95820.75;;;16.13;56.85
30682;BME280;17439;48.092;11.842;2023-05-08T06:36:21;95825.31;;;16.21;56.16
30682;BME280;17439;48.092;11.842;2023-05-08T06:38:48;95821.91;;;16.24;56.59
30682;BME280;17439;48.092;11.842;2023-05-08T06:41:14;95828.28;;;16.28;56.76
30682;BME280;17439;48.092;11.842;2023-05-08T06:43:41;95826.50;;;16.32;57.16
30682;BME280;17439;48.092;11.842;2023-05-08T06:46:08;95828.31;;;16.41;57.16
30682;BME280;17439;48.092;11.842;2023-05-08T06:48:35;95830.03;;;16.45;57.27
30682;BME280;17439;48.092;11.842;2023-05-08T06:51:01;95833.34;;;16.51;57.19
30682;BME280;17439;48.092;11.842;2023-05-08T06:53:28;95829.84;;;16.63;55.73
30682;BME280;17439;48.092;11.842;2023-05-08T06:55:55;95837.47;;;16.69;56.46
30682;BME280;17439;48.092;11.842;2023-05-08T06:58:21;95838.84;;;16.76;55.82
30682;BME280;17439;48.092;11.842;2023-05-08T07:00:48;95838.63;;;16.81;56.35
30682;BME280;17439;48.092;11.842;2023-05-08T07:03:15;95841.16;;;16.86;56.10
30682;BME280;17439;48.092;11.842;2023-05-08T07:05:42;95840.97;;;16.91;55.91
30682;BME280;17439;48.092;11.842;2023-05-08T07:08:08;95848.25;;;16.99;56.31
30682;BME280;17439;48.092;11.842;2023-05-08T07:10:35;95850.53;;;17.10;56.02
30682;BME280;17439;48.092;11.842;2023-05-08T07:13:02;95838.66;;;17.18;56.34
30682;BME280;17439;48.092;11.842;2023-05-08T07:15:30;95848.22;;;17.24;55.00
30682;BME280;17439;48.092;11.842;2023-05-08T07:17:57;95844.59;;;17.32;55.46
30682;BME280;17439;48.092;11.842;2023-05-08T07:20:24;95843.66;;;17.40;55.63
30682;BME280;17439;48.092;11.842;2023-05-08T07:22:51;95848.09;;;17.45;54.83
30682;BME280;17439;48.092;11.842;2023-05-08T07:25:17;95844.09;;;17.55;55.12
30682;BME280;17439;48.092;11.842;2023-05-08T07:27:44;95851.81;;;17.65;55.45
30682;BME280;17439;48.092;11.842;2023-05-08T07:30:11;95841.88;;;17.73;55.82
30682;BME280;17439;48.092;11.842;2023-05-08T07:32:38;95840.81;;;17.77;54.64
30682;BME280;17439;48.092;11.842;2023-05-08T07:35:06;95853.16;;;17.84;54.35
30682;BME280;17439;48.092;11.842;2023-05-08T07:37:35;95844.78;;;17.92;54.62
30682;BME280;17439;48.092;11.842;2023-05-08T07:40:02;95841.00;;;17.97;54.32
30682;BME280;17439;48.092;11.842;2023-05-08T07:42:29;95841.47;;;17.99;53.73
30682;BME280;17439;48.092;11.842;2023-05-08T07:44:55;95844.41;;;18.06;53.93
30682;BME280;17439;48.092;11.842;2023-05-08T07:47:22;95852.38;;;18.11;54.23
30682;BME280;17439;48.092;11.842;2023-05-08T07:49:49;95851.31;;;18.16;53.91
30682;BME280;17439;48.092;11.842;2023-05-08T07:52:16;95850.28;;;18.21;54.04
30682;BME280;17439;48.092;11.842;2023-05-08T07:54:42;95847.28;;;18.26;53.96
30682;BME280;17439;48.092;11.842;2023-05-08T07:57:09;95846.03;;;18.23;52.54
30682;BME280;17439;48.092;11.842;2023-05-08T07:59:36;95849.31;;;18.29;53.10
30682;BME280;17439;48.092;11.842;2023-05-08T08:02:02;95844.31;;;18.31;53.25
30682;BME280;17439;48.092;11.842;2023-05-08T08:04:29;95850.66;;;18.35;53.27
30682;BME280;17439;48.092;11.842;2023-05-08T08:06:56;95854.56;;;18.34;52.44
30682;BME280;17439;48.092;11.842;2023-05-08T08:09:22;95851.44;;;18.36;52.41
30682;BME280;17439;48.092;11.842;2023-05-08T08:11:49;95843.13;;;18.32;51.74
30682;BME280;17439;48.092;11.842;2023-05-08T08:14:16;95850.66;;;18.35;52.03
30682;BME280;17439;48.092;11.842;2023-05-08T08:16:42;95849.88;;;18.35;52.08
30682;BME280;17439;48.092;11.842;2023-05-08T08:19:09;95847.66;;;18.40;51.91
30682;BME280;17439;48.092;11.842;2023-05-08T08:21:41;95842.16;;;18.40;50.37
30682;BME280;17439;48.092;11.842;2023-05-08T08:24:08;95854.47;;;18.46;52.51
30682;BME280;17439;48.092;11.842;2023-05-08T08:26:34;95849.47;;;18.48;52.35
30682;BME280;17439;48.092;11.842;2023-05-08T08:29:01;95851.13;;;18.53;52.66
30682;BME280;17439;48.092;11.842;2023-05-08T08:31:28;95848.50;;;18.57;52.60
30682;BME280;17439;48.092;11.842;2023-05-08T08:33:55;95845.03;;;18.60;51.57
30682;BME280;17439;48.092;11.842;2023-05-08T08:36:21;95852.31;;;18.68;51.52
30682;BME280;17439;48.092;11.842;2023-05-08T08:38:48;95850.91;;;18.74;51.97
30682;BME280;17439;48.092;11.842;2023-05-08T08:41:15;95849.13;;;18.82;51.76
30682;BME280;17439;48.092;11.842;2023-05-08T08:43:42;95849.69;;;18.88;51.64
30682;BME280;17439;48.092;11.842;2023-05-08T08:46:12;95854.91;;;18.93;50.20
30682;BME280;17439;48.092;11.842;2023-05-08T08:48:44;95850.72;;;18.99;49.59
30682;BME280;17439;48.092;11.842;2023-05-08T08:51:22;95852.50;;;19.07;51.24
30682;BME280;17439;48.092;11.842;2023-05-08T08:53:57;95855.06;;;19.16;49.20
30682;BME280;17439;48.092;11.842;2023-05-08T08:56:26;95850.91;;;19.22;51.00
30682;BME280;17439;48.092;11.842;2023-05-08T08:58:55;95852.56;;;19.27;51.44
30682;BME280;17439;48.092;11.842;2023-05-08T09:01:23;95852.38;;;19.35;51.25
30682;BME280;17439;48.092;11.842;2023-05-08T09:03:50;95853.25;;;19.39;51.56
30682;BME280;17439;48.092;11.842;2023-05-08T09:06:18;95849.44;;;19.44;50.16
30682;BME280;17439;48.092;11.842;2023-05-08T09:08:45;95855.16;;;19.55;50.88
30682;BME280;17439;48.092;11.842;2023-05-08T09:11:12;95848.69;;;19.63;51.84
30682;BME280;17439;48.092;11.842;2023-05-08T09:13:39;95858.75;;;19.75;51.33
30682;BME280;17439;48.092;11.842;2023-05-08T09:16:06;95856.25;;;19.86;51.36
30682;BME280;17439;48.092;11.842;2023-05-08T09:18:33;95850.53;;;19.94;50.80
30682;BME280;17439;48.092;11.842;2023-05-08T09:20:59;95847.63;;;20.07;50.47
30682;BME280;17439;48.092;11.842;2023-05-08T09:23:26;95847.44;;;20.16;50.46
30682;BME280;17439;48.092;11.842;2023-05-08T09:25:53;95850.25;;;20.19;49.20
30682;BME280;17439;48.092;11.842;2023-05-08T09:28:22;95844.06;;;20.26;49.74
30682;BME280;17439;48.092;11.842;2023-05-08T09:30:50;95839.44;;;20.30;48.54
30682;BME280;17439;48.092;11.842;2023-05-08T09:33:18;95841.53;;;20.37;48.88
30682;BME280;17439;48.092;11.842;2023-05-08T09:35:45;95853.84;;;20.43;49.21
30682;BME280;17439;48.092;11.842;2023-05-08T09:41:23;95857.16;;;20.52;49.56
30682;BME280;17439;48.092;11.842;2023-05-08T09:44:04;95852.91;;;20.58;47.62
30682;BME280;17439;48.092;11.842;2023-05-08T09:46:31;95856.72;;;20.70;47.61
30682;BME280;17439;48.092;11.842;2023-05-08T09:49:00;95859.63;;;20.80;45.26
30682;BME280;17439;48.092;11.842;2023-05-08T09:51:28;95861.97;;;20.78;46.19
30682;BME280;17439;48.092;11.842;2023-05-08T09:53:57;95850.22;;;20.81;45.06
30682;BME280;17439;48.092;11.842;2023-05-08T09:56:34;95863.94;;;20.78;44.85
30682;BME280;17439;48.092;11.842;2023-05-08T09:59:02;95864.66;;;20.75;44.60
30682;BME280;17439;48.092;11.842;2023-05-08T10:01:32;95860.97;;;20.67;45.31
30682;BME280;17439;48.092;11.842;2023-05-08T10:03:59;95856.53;;;20.62;46.16
30682;BME280;17439;48.092;11.842;2023-05-08T10:06:26;95851.72;;;20.56;46.92
30682;BME280;17439;48.092;11.842;2023-05-08T10:09:06;95849.63;;;20.49;46.23
30682;BME280;17439;48.092;11.842;2023-05-08T10:11:33;95857.53;;;20.51;48.17
30682;BME280;17439;48.092;11.842;2023-05-08T10:14:00;95857.28;;;20.59;47.40
30682;BME280;17439;48.092;11.842;2023-05-08T10:16:28;95857.88;;;20.69;46.57
30682;BME280;17439;48.092;11.842;2023-05-08T10:18:59;95854.06;;;20.77;45.92
30682;BME280;17439;48.092;11.842;2023-05-08T10:21:27;95860.81;;;20.79;46.66
30682;BME280;17439;48.092;11.842;2023-05-08T10:23:56;95853.25;;;20.99;42.91
30682;BME280;17439;48.092;11.842;2023-05-08T10:26:29;95853.88;;;20.89;44.74
30682;BME280;17439;48.092;11.842;2023-05-08T10:28:57;95847.03;;;20.79;46.18
30682;BME280;17439;48.092;11.842;2023-05-08T10:31:27;95849.44;;;20.81;44.84
30682;BME280;17439;48.092;11.842;2023-05-08T10:33:55;95845.03;;;20.76;46.20
30682;BME280;17439;48.092;11.842;2023-05-08T10:36:24;95848.09;;;20.71;45.02
30682;BME280;17439;48.092;11.842;2023-05-08T10:38:52;95842.94;;;20.70;47.42
30682;BME280;17439;48.092;11.842;2023-05-08T10:41:19;95839.44;;;20.73;47.38
30682;BME280;17439;48.092;11.842;2023-05-08T10:43:47;95837.13;;;20.75;47.08
30682;BME280;17439;48.092;11.842;2023-05-08T10:46:24;95830.88;;;20.78;47.46
30682;BME280;17439;48.092;11.842;2023-05-08T10:54:47;95824.31;;;20.86;47.34
30682;BME280;17439;48.092;11.842;2023-05-08T10:57:17;95823.69;;;20.96;48.93
30682;BME280;17439;48.092;11.842;2023-05-08T10:59:45;95817.88;;;21.01;47.10
30682;BME280;17439;48.092;11.842;2023-05-08T11:02:12;95819.25;;;21.15;46.64
30682;BME280;17439;48.092;11.842;2023-05-08T11:04:39;95824.13;;;21.25;47.16
30682;BME280;17439;48.092;11.842;2023-05-08T11:07:06;95819.09;;;21.31;46.97
30682;BME280;17439;48.092;11.842;2023-05-08T11:15:01;95825.78;;;21.56;43.69
30682;BME280;17439;48.092;11.842;2023-05-08T11:17:28;95817.78;;;21.48;44.83
30682;BME280;17439;48.092;11.842;2023-05-08T11:20:00;95816.00;;;21.36;45.43
30682;BME280;17439;48.092;11.842;2023-05-08T11:22:34;95824.66;;;21.34;44.96
30682;BME280;17439;48.092;11.842;2023-05-08T11:25:04;95820.75;;;21.35;45.01
30682;BME280;17439;48.092;11.842;2023-05-08T11:45:59;95806.09;;;21.58;46.05
30682;BME280;17439;48.092;11.842;2023-05-08T11:48:27;95802.28;;;21.66;45.93
30682;BME280;17439;48.092;11.842;2023-05-08T11:50:54;95801.59;;;21.73;44.67
30682;BME280;17439;48.092;11.842;2023-05-08T11:53:21;95799.94;;;21.68;45.10
30682;BME280;17439;48.092;11.842;2023-05-08T11:55:48;95802.75;;;21.72;45.99
30682;BME280;17439;48.092;11.842;2023-05-08T11:58:15;95804.84;;;21.82;44.65
30682;BME280;17439;48.092;11.842;2023-05-08T12:00:43;95805.72;;;21.90;44.61
30682;BME280;17439;48.092;11.842;2023-05-08T12:03:15;95805.72;;;21.90;43.49
30682;BME280;17439;48.092;11.842;2023-05-08T12:05:43;95802.59;;;21.91;45.36
30682;BME280;17439;48.092;11.842;2023-05-08T12:08:11;95820.00;;;21.96;46.26
30682;BME280;17439;48.092;11.842;2023-05-08T12:10:58;95813.34;;;22.00;42.61
30682;BME280;17439;48.092;11.842;2023-05-08T12:13:27;95805.94;;;22.08;46.30
30682;BME280;17439;48.092;11.842;2023-05-08T12:15:59;95807.56;;;22.13;44.16
30682;BME280;17439;48.092;11.842;2023-05-08T12:18:27;95811.19;;;22.20;45.00
30682;BME280;17439;48.092;11.842;2023-05-08T12:21:00;95807.56;;;22.13;43.21
30682;BME280;17439;48.092;11.842;2023-05-08T12:23:30;95810.56;;;22.31;45.57
30682;BME280;17439;48.092;11.842;2023-05-08T12:26:00;95813.00;;;22.39;45.00
30682;BME280;17439;48.092;11.842;2023-05-08T12:28:27;95810.31;;;22.46;45.96
30682;BME280;17439;48.092;11.842;2023-05-08T12:30:54;95809.97;;;22.52;46.15
30682;BME280;17439;48.092;11.842;2023-05-08T12:33:22;95812.00;;;22.58;45.97
30682;BME280;17439;48.092;11.842;2023-05-08T12:35:49;95802.53;;;22.56;45.42
30682;BME280;17439;48.092;11.842;2023-05-08T12:38:16;95800.19;;;22.61;45.98
30682;BME280;17439;48.092;11.842;2023-05-08T12:40:44;95805.75;;;22.65;45.94
30682;BME280;17439;48.092;11.842;2023-05-08T12:43:11;95805.81;;;22.69;46.14
30682;BME280;17439;48.092;11.842;2023-05-08T12:45:40;95803.06;;;22.72;46.30
30682;BME280;17439;48.092;11.842;2023-05-08T12:48:12;95803.47;;;22.74;45.83
30682;BME280;17439;48.092;11.842;2023-05-08T12:50:41;95809.41;;;22.76;46.29
30682;BME280;17439;48.092;11.842;2023-05-08T12:53:12;95801.94;;;22.80;46.54
30682;BME280;17439;48.092;11.842;2023-05-08T12:55:52;95793.25;;;22.78;45.20
30682;BME280;17439;48.092;11.842;2023-05-08T12:58:21;95801.94;;;22.80;45.42
30682;BME280;17439;48.092;11.842;2023-05-08T13:00:51;95803.88;;;22.76;45.07
30682;BME280;17439;48.092;11.842;2023-05-08T13:03:23;95805.81;;;22.72;44.55
30682;BME280;17439;48.092;11.842;2023-05-08T13:05:51;95804.22;;;22.71;45.64
30682;BME280;17439;48.092;11.842;2023-05-08T13:08:18;95797.91;;;22.71;45.99
30682;BME280;17439;48.092;11.842;2023-05-08T13:10:50;95799.53;;;22.75;44.60
30682;BME280;17439;48.092;11.842;2023-05-08T13:13:18;95791.66;;;22.77;43.26
30682;BME280;17439;48.092;11.842;2023-05-08T13:15:47;95795.19;;;22.74;43.94
30682;BME280;17439;48.092;11.842;2023-05-08T13:18:14;95796.28;;;22.66;44.19
30682;BME280;17439;48.092;11.842;2023-05-08T13:20:42;95793.13;;;22.64;43.75
30682;BME280;17439;48.092;11.842;2023-05-08T13:23:09;95799.00;;;22.59;44.90
30682;BME280;17439;48.092;11.842;2023-05-08T13:25:37;95798.19;;;22.58;45.09
30682;BME280;17439;48.092;11.842;2023-05-08T13:28:04;95797.41;;;22.58;44.59
30682;BME280;17439;48.092;11.842;2023-05-08T13:30:32;95795.03;;;22.56;44.62
30682;BME280;17439;48.092;11.842;2023-05-08T13:32:58;95797.03;;;22.59;44.64
30682;BME280;17439;48.092;11.842;2023-05-08T13:35:26;95790.78;;;22.66;42.42
30682;BME280;17439;48.092;11.842;2023-05-08T13:37:56;95794.69;;;22.65;43.93
30682;BME280;17439;48.092;11.842;2023-05-08T13:40:23;95790.00;;;22.66;43.44
30682;BME280;17439;48.092;11.842;2023-05-08T13:42:50;95786.09;;;22.70;41.47
30682;BME280;17439;48.092;11.842;2023-05-08T13:45:17;95784.53;;;22.76;39.85
30682;BME280;17439;48.092;11.842;2023-05-08T13:47:45;95780.47;;;22.63;40.97
30682;BME280;17439;48.092;11.842;2023-05-08T13:50:14;95789.47;;;22.53;40.72
30682;BME280;17439;48.092;11.842;2023-05-08T13:52:41;95777.06;;;22.36;41.96
30682;BME280;17439;48.092;11.842;2023-05-08T13:55:10;95786.50;;;22.31;41.56